sensor_id;sensor_type;location;lat;lon;timestamp;P1;durP1;ratioP1;P2;durP2;ratioP2
19384;SDS011;9828;54.122;17.974;2024-02-26T00:02:26;63.93;;;29.27;;
19384;SDS011;9828;54.122;17.974;2024-02-26T00:07:48;63.90;;;30.13;;
19384;SDS011;9828;54.122;17.974;2024-02-26T00:13:10;84.70;;;37.40;;
19384;SDS011;9828;54.122;17.974;2024-02-26T00:18:32;103.37;;;43.57;;
19384;SDS011;9828;54.122;17.974;2024-02-26T00:23:53;99.13;;;40.47;;
19384;SDS011;9828;54.122;17.974;2024-02-26T00:29:15;82.00;;;37.40;;
19384;SDS011;9828;54.122;17.974;2024-02-26T00:34:36;87.47;;;36.00;;
19384;SDS011;9828;54.122;17.974;2024-02-26T00:39:58;86.10;;;36.03;;
19384;SDS011;9828;54.122;17.974;2024-02-26T00:45:20;79.73;;;37.87;;
19384;SDS011;9828;54.122;17.974;2024-02-26T00:50:41;85.10;;;40.37;;
19384;SDS011;9828;54.122;17.974;2024-02-26T00:56:03;88.73;;;41.83;;
19384;SDS011;9828;54.122;17.974;2024-02-26T01:01:25;74.13;;;37.23;;
19384;SDS011;9828;54.122;17.974;2024-02-26T01:06:47;57.37;;;30.77;;
19384;SDS011;9828;54.122;17.974;2024-02-26T01:12:08;48.83;;;26.93;;
19384;SDS011;9828;54.122;17.974;2024-02-26T01:17:30;48.40;;;24.73;;
19384;SDS011;9828;54.122;17.974;2024-02-26T01:22:51;40.27;;;23.63;;
19384;SDS011;9828;54.122;17.974;2024-02-26T01:28:13;40.20;;;23.30;;
19384;SDS011;9828;54.122;17.974;2024-02-26T01:33:35;41.63;;;23.53;;
19384;SDS011;9828;54.122;17.974;2024-02-26T01:38:57;40.83;;;22.53;;
19384;SDS011;9828;54.122;17.974;2024-02-26T01:44:18;41.20;;;21.00;;
19384;SDS011;9828;54.122;17.974;2024-02-26T01:49:40;39.23;;;20.23;;
19384;SDS011;9828;54.122;17.974;2024-02-26T01:55:02;38.30;;;21.40;;
19384;SDS011;9828;54.122;17.974;2024-02-26T02:00:23;45.47;;;22.50;;
19384;SDS011;9828;54.122;17.974;2024-02-26T02:05:46;39.87;;;20.40;;
19384;SDS011;9828;54.122;17.974;2024-02-26T02:11:07;41.83;;;21.43;;
19384;SDS011;9828;54.122;17.974;2024-02-26T02:16:32;39.87;;;20.97;;
19384;SDS011;9828;54.122;17.974;2024-02-26T02:21:54;34.17;;;18.57;;
19384;SDS011;9828;54.122;17.974;2024-02-26T02:27:16;39.30;;;18.83;;
19384;SDS011;9828;54.122;17.974;2024-02-26T02:32:39;33.47;;;19.47;;
19384;SDS011;9828;54.122;17.974;2024-02-26T02:38:07;34.13;;;19.23;;
19384;SDS011;9828;54.122;17.974;2024-02-26T02:43:29;33.43;;;19.77;;
19384;SDS011;9828;54.122;17.974;2024-02-26T02:48:53;32.57;;;19.33;;
19384;SDS011;9828;54.122;17.974;2024-02-26T02:54:16;38.07;;;21.17;;
19384;SDS011;9828;54.122;17.974;2024-02-26T02:59:40;38.87;;;22.33;;
19384;SDS011;9828;54.122;17.974;2024-02-26T03:05:02;35.30;;;22.20;;
19384;SDS011;9828;54.122;17.974;2024-02-26T03:10:24;36.03;;;22.53;;
19384;SDS011;9828;54.122;17.974;2024-02-26T03:15:46;37.63;;;23.77;;
19384;SDS011;9828;54.122;17.974;2024-02-26T03:21:07;39.20;;;23.83;;
19384;SDS011;9828;54.122;17.974;2024-02-26T03:26:29;35.63;;;20.93;;
19384;SDS011;9828;54.122;17.974;2024-02-26T03:31:51;34.37;;;20.37;;
19384;SDS011;9828;54.122;17.974;2024-02-26T03:37:13;30.97;;;19.93;;
19384;SDS011;9828;54.122;17.974;2024-02-26T03:42:35;32.97;;;21.03;;
19384;SDS011;9828;54.122;17.974;2024-02-26T03:47:57;37.87;;;22.07;;
19384;SDS011;9828;54.122;17.974;2024-02-26T03:53:18;41.60;;;23.60;;
19384;SDS011;9828;54.122;17.974;2024-02-26T03:58:41;36.13;;;21.20;;
19384;SDS011;9828;54.122;17.974;2024-02-26T04:04:03;34.07;;;21.30;;
19384;SDS011;9828;54.122;17.974;2024-02-26T04:09:24;36.60;;;22.63;;
19384;SDS011;9828;54.122;17.974;2024-02-26T04:14:48;41.00;;;23.47;;
19384;SDS011;9828;54.122;17.974;2024-02-26T04:20:13;45.03;;;25.63;;
19384;SDS011;9828;54.122;17.974;2024-02-26T04:25:36;42.30;;;23.67;;
19384;SDS011;9828;54.122;17.974;2024-02-26T04:30:58;39.90;;;23.50;;
19384;SDS011;9828;54.122;17.974;2024-02-26T04:36:19;42.43;;;25.03;;
19384;SDS011;9828;54.122;17.974;2024-02-26T04:41:43;42.67;;;27.00;;
19384;SDS011;9828;54.122;17.974;2024-02-26T04:47:05;42.93;;;25.90;;
19384;SDS011;9828;54.122;17.974;2024-02-26T04:52:28;51.30;;;28.87;;
19384;SDS011;9828;54.122;17.974;2024-02-26T04:57:50;49.17;;;28.43;;
19384;SDS011;9828;54.122;17.974;2024-02-26T05:03:12;52.03;;;31.90;;
19384;SDS011;9828;54.122;17.974;2024-02-26T05:08:35;56.97;;;33.47;;
19384;SDS011;9828;54.122;17.974;2024-02-26T05:13:58;60.20;;;34.83;;
19384;SDS011;9828;54.122;17.974;2024-02-26T05:19:21;54.80;;;31.50;;
19384;SDS011;9828;54.122;17.974;2024-02-26T05:24:42;58.30;;;32.83;;
19384;SDS011;9828;54.122;17.974;2024-02-26T05:30:04;52.47;;;31.13;;
19384;SDS011;9828;54.122;17.974;2024-02-26T05:35:27;46.83;;;29.67;;
19384;SDS011;9828;54.122;17.974;2024-02-26T05:40:49;50.03;;;30.97;;
19384;SDS011;9828;54.122;17.974;2024-02-26T05:46:13;54.47;;;37.77;;
19384;SDS011;9828;54.122;17.974;2024-02-26T05:51:35;50.67;;;35.57;;
19384;SDS011;9828;54.122;17.974;2024-02-26T05:56:57;42.80;;;30.90;;
19384;SDS011;9828;54.122;17.974;2024-02-26T06:02:19;45.53;;;30.13;;
19384;SDS011;9828;54.122;17.974;2024-02-26T06:07:40;43.53;;;29.93;;
19384;SDS011;9828;54.122;17.974;2024-02-26T06:13:01;92.57;;;36.47;;
19384;SDS011;9828;54.122;17.974;2024-02-26T06:18:23;96.57;;;39.80;;
19384;SDS011;9828;54.122;17.974;2024-02-26T06:23:44;71.17;;;33.60;;
19384;SDS011;9828;54.122;17.974;2024-02-26T06:29:07;60.20;;;31.50;;
19384;SDS011;9828;54.122;17.974;2024-02-26T06:34:28;69.23;;;34.63;;
19384;SDS011;9828;54.122;17.974;2024-02-26T06:39:49;60.20;;;33.43;;
19384;SDS011;9828;54.122;17.974;2024-02-26T06:45:12;58.83;;;33.23;;
19384;SDS011;9828;54.122;17.974;2024-02-26T06:50:34;63.87;;;36.33;;
19384;SDS011;9828;54.122;17.974;2024-02-26T06:55:56;79.50;;;42.20;;
19384;SDS011;9828;54.122;17.974;2024-02-26T07:01:18;83.03;;;44.13;;
19384;SDS011;9828;54.122;17.974;2024-02-26T07:06:39;85.23;;;50.07;;
19384;SDS011;9828;54.122;17.974;2024-02-26T07:12:02;100.67;;;56.07;;
19384;SDS011;9828;54.122;17.974;2024-02-26T07:17:24;95.63;;;54.93;;
19384;SDS011;9828;54.122;17.974;2024-02-26T07:22:45;88.63;;;49.80;;
19384;SDS011;9828;54.122;17.974;2024-02-26T07:28:07;84.33;;;48.90;;
19384;SDS011;9828;54.122;17.974;2024-02-26T07:33:28;86.63;;;49.17;;
19384;SDS011;9828;54.122;17.974;2024-02-26T07:38:50;87.07;;;51.10;;
19384;SDS011;9828;54.122;17.974;2024-02-26T07:44:17;97.53;;;50.93;;
19384;SDS011;9828;54.122;17.974;2024-02-26T07:49:40;92.97;;;53.83;;
19384;SDS011;9828;54.122;17.974;2024-02-26T07:55:02;86.18;;;50.97;;
19384;SDS011;9828;54.122;17.974;2024-02-26T08:00:24;97.22;;;54.60;;
19384;SDS011;9828;54.122;17.974;2024-02-26T08:05:46;81.95;;;46.90;;
19384;SDS011;9828;54.122;17.974;2024-02-26T08:11:08;89.30;;;49.78;;
19384;SDS011;9828;54.122;17.974;2024-02-26T08:16:32;89.03;;;53.63;;
19384;SDS011;9828;54.122;17.974;2024-02-26T08:21:55;96.50;;;58.85;;
19384;SDS011;9828;54.122;17.974;2024-02-26T08:27:17;71.60;;;44.45;;
19384;SDS011;9828;54.122;17.974;2024-02-26T08:32:39;49.70;;;34.97;;
19384;SDS011;9828;54.122;17.974;2024-02-26T08:38:01;52.17;;;34.38;;
19384;SDS011;9828;54.122;17.974;2024-02-26T08:43:25;54.47;;;33.42;;
19384;SDS011;9828;54.122;17.974;2024-02-26T08:48:48;53.90;;;32.83;;
19384;SDS011;9828;54.122;17.974;2024-02-26T08:54:09;47.10;;;32.08;;
19384;SDS011;9828;54.122;17.974;2024-02-26T08:59:31;50.28;;;34.17;;
19384;SDS011;9828;54.122;17.974;2024-02-26T09:04:52;61.97;;;38.63;;
19384;SDS011;9828;54.122;17.974;2024-02-26T09:10:16;57.17;;;34.75;;
19384;SDS011;9828;54.122;17.974;2024-02-26T09:15:37;58.17;;;36.88;;
19384;SDS011;9828;54.122;17.974;2024-02-26T09:20:58;54.80;;;31.25;;
19384;SDS011;9828;54.122;17.974;2024-02-26T09:26:19;42.97;;;27.48;;
19384;SDS011;9828;54.122;17.974;2024-02-26T09:31:41;37.22;;;22.95;;
19384;SDS011;9828;54.122;17.974;2024-02-26T09:37:02;28.35;;;18.98;;
19384;SDS011;9828;54.122;17.974;2024-02-26T09:42:27;29.52;;;17.85;;
19384;SDS011;9828;54.122;17.974;2024-02-26T09:47:52;28.10;;;19.27;;
19384;SDS011;9828;54.122;17.974;2024-02-26T09:53:15;30.92;;;17.38;;
19384;SDS011;9828;54.122;17.974;2024-02-26T09:58:39;23.30;;;13.93;;
19384;SDS011;9828;54.122;17.974;2024-02-26T10:04:02;18.33;;;12.77;;
19384;SDS011;9828;54.122;17.974;2024-02-26T10:09:25;16.85;;;11.57;;
19384;SDS011;9828;54.122;17.974;2024-02-26T10:14:47;32.00;;;17.52;;
19384;SDS011;9828;54.122;17.974;2024-02-26T10:25:55;18.05;;;10.43;;
19384;SDS011;9828;54.122;17.974;2024-02-26T10:31:16;23.17;;;16.48;;
19384;SDS011;9828;54.122;17.974;2024-02-26T10:36:39;14.20;;;10.00;;
19384;SDS011;9828;54.122;17.974;2024-02-26T10:42:10;19.05;;;12.50;;
19384;SDS011;9828;54.122;17.974;2024-02-26T10:47:33;11.57;;;7.55;;
19384;SDS011;9828;54.122;17.974;2024-02-26T10:52:54;15.02;;;8.75;;
19384;SDS011;9828;54.122;17.974;2024-02-26T10:58:16;15.43;;;9.18;;
19384;SDS011;9828;54.122;17.974;2024-02-26T11:03:41;16.50;;;8.57;;
19384;SDS011;9828;54.122;17.974;2024-02-26T11:09:03;15.50;;;9.32;;
19384;SDS011;9828;54.122;17.974;2024-02-26T11:14:27;17.45;;;10.23;;
19384;SDS011;9828;54.122;17.974;2024-02-26T11:19:51;19.52;;;11.43;;
19384;SDS011;9828;54.122;17.974;2024-02-26T11:25:14;22.48;;;12.70;;
19384;SDS011;9828;54.122;17.974;2024-02-26T11:30:38;11.73;;;8.10;;
19384;SDS011;9828;54.122;17.974;2024-02-26T11:36:02;22.75;;;12.40;;
19384;SDS011;9828;54.122;17.974;2024-02-26T11:41:23;16.50;;;9.88;;
19384;SDS011;9828;54.122;17.974;2024-02-26T11:46:45;10.80;;;5.53;;
19384;SDS011;9828;54.122;17.974;2024-02-26T11:52:08;10.77;;;5.78;;
19384;SDS011;9828;54.122;17.974;2024-02-26T12:03:01;10.43;;;6.72;;
19384;SDS011;9828;54.122;17.974;2024-02-26T12:08:26;15.25;;;6.03;;
19384;SDS011;9828;54.122;17.974;2024-02-26T12:13:48;15.27;;;8.32;;
19384;SDS011;9828;54.122;17.974;2024-02-26T12:19:11;39.60;;;17.80;;
19384;SDS011;9828;54.122;17.974;2024-02-26T12:24:34;22.95;;;14.38;;
19384;SDS011;9828;54.122;17.974;2024-02-26T12:29:55;15.27;;;8.15;;
19384;SDS011;9828;54.122;17.974;2024-02-26T12:35:17;16.27;;;9.65;;
19384;SDS011;9828;54.122;17.974;2024-02-26T12:40:38;11.00;;;7.82;;
19384;SDS011;9828;54.122;17.974;2024-02-26T12:46:02;16.98;;;10.00;;
19384;SDS011;9828;54.122;17.974;2024-02-26T12:51:27;22.90;;;13.40;;
19384;SDS011;9828;54.122;17.974;2024-02-26T12:56:50;19.70;;;10.18;;
19384;SDS011;9828;54.122;17.974;2024-02-26T13:02:11;17.17;;;8.95;;
19384;SDS011;9828;54.122;17.974;2024-02-26T13:07:33;12.02;;;8.48;;
19384;SDS011;9828;54.122;17.974;2024-02-26T13:12:56;13.20;;;7.55;;
19384;SDS011;9828;54.122;17.974;2024-02-26T13:18:18;10.68;;;7.75;;
19384;SDS011;9828;54.122;17.974;2024-02-26T13:23:40;12.52;;;6.90;;
19384;SDS011;9828;54.122;17.974;2024-02-26T13:29:05;8.77;;;5.75;;
19384;SDS011;9828;54.122;17.974;2024-02-26T13:34:29;20.27;;;10.95;;
19384;SDS011;9828;54.122;17.974;2024-02-26T13:39:51;27.88;;;13.48;;
19384;SDS011;9828;54.122;17.974;2024-02-26T13:45:14;22.52;;;10.88;;
19384;SDS011;9828;54.122;17.974;2024-02-26T13:50:39;14.18;;;8.00;;
19384;SDS011;9828;54.122;17.974;2024-02-26T13:56:00;12.27;;;6.88;;
19384;SDS011;9828;54.122;17.974;2024-02-26T14:01:22;16.90;;;7.05;;
19384;SDS011;9828;54.122;17.974;2024-02-26T14:06:44;17.70;;;8.10;;
19384;SDS011;9828;54.122;17.974;2024-02-26T14:12:05;13.55;;;8.80;;
19384;SDS011;9828;54.122;17.974;2024-02-26T14:17:27;19.17;;;10.05;;
19384;SDS011;9828;54.122;17.974;2024-02-26T14:22:49;27.38;;;12.85;;
19384;SDS011;9828;54.122;17.974;2024-02-26T14:28:14;15.73;;;10.30;;
19384;SDS011;9828;54.122;17.974;2024-02-26T14:33:39;22.57;;;9.90;;
19384;SDS011;9828;54.122;17.974;2024-02-26T14:39:01;15.67;;;9.07;;
19384;SDS011;9828;54.122;17.974;2024-02-26T14:44:24;17.13;;;11.60;;
19384;SDS011;9828;54.122;17.974;2024-02-26T14:49:48;22.47;;;15.43;;
19384;SDS011;9828;54.122;17.974;2024-02-26T14:55:12;24.77;;;15.90;;
19384;SDS011;9828;54.122;17.974;2024-02-26T15:00:34;27.50;;;16.53;;
19384;SDS011;9828;54.122;17.974;2024-02-26T15:05:56;46.30;;;22.57;;
19384;SDS011;9828;54.122;17.974;2024-02-26T15:11:17;39.73;;;21.90;;
19384;SDS011;9828;54.122;17.974;2024-02-26T15:16:39;30.27;;;18.20;;
19384;SDS011;9828;54.122;17.974;2024-02-26T15:22:01;40.83;;;23.73;;
19384;SDS011;9828;54.122;17.974;2024-02-26T15:27:22;33.37;;;19.67;;
19384;SDS011;9828;54.122;17.974;2024-02-26T15:32:48;34.00;;;19.83;;
19384;SDS011;9828;54.122;17.974;2024-02-26T15:38:09;34.57;;;20.13;;
19384;SDS011;9828;54.122;17.974;2024-02-26T15:43:31;31.40;;;18.83;;
19384;SDS011;9828;54.122;17.974;2024-02-26T15:48:53;35.00;;;21.57;;
19384;SDS011;9828;54.122;17.974;2024-02-26T15:54:14;43.33;;;23.50;;
19384;SDS011;9828;54.122;17.974;2024-02-26T15:59:36;35.83;;;20.90;;
19384;SDS011;9828;54.122;17.974;2024-02-26T16:04:58;33.30;;;19.57;;
19384;SDS011;9828;54.122;17.974;2024-02-26T16:10:20;40.03;;;23.80;;
19384;SDS011;9828;54.122;17.974;2024-02-26T16:15:43;39.33;;;24.23;;
19384;SDS011;9828;54.122;17.974;2024-02-26T16:21:05;37.60;;;22.43;;
19384;SDS011;9828;54.122;17.974;2024-02-26T16:26:27;33.47;;;19.07;;
19384;SDS011;9828;54.122;17.974;2024-02-26T16:31:49;44.67;;;19.27;;
19384;SDS011;9828;54.122;17.974;2024-02-26T16:37:11;44.60;;;20.13;;
19384;SDS011;9828;54.122;17.974;2024-02-26T16:42:33;35.23;;;18.73;;
19384;SDS011;9828;54.122;17.974;2024-02-26T16:47:57;35.63;;;18.53;;
19384;SDS011;9828;54.122;17.974;2024-02-26T16:53:18;32.10;;;18.37;;
19384;SDS011;9828;54.122;17.974;2024-02-26T16:58:41;32.03;;;18.17;;
19384;SDS011;9828;54.122;17.974;2024-02-26T17:04:03;32.93;;;17.90;;
19384;SDS011;9828;54.122;17.974;2024-02-26T17:09:24;34.07;;;20.03;;
19384;SDS011;9828;54.122;17.974;2024-02-26T17:14:48;35.93;;;21.93;;
19384;SDS011;9828;54.122;17.974;2024-02-26T17:20:14;38.60;;;20.80;;
19384;SDS011;9828;54.122;17.974;2024-02-26T17:25:38;35.77;;;20.13;;
19384;SDS011;9828;54.122;17.974;2024-02-26T17:30:59;36.17;;;19.87;;
19384;SDS011;9828;54.122;17.974;2024-02-26T17:36:22;51.70;;;28.10;;
19384;SDS011;9828;54.122;17.974;2024-02-26T17:41:44;61.20;;;33.23;;
19384;SDS011;9828;54.122;17.974;2024-02-26T17:47:06;52.93;;;29.17;;
19384;SDS011;9828;54.122;17.974;2024-02-26T17:52:27;52.30;;;26.07;;
19384;SDS011;9828;54.122;17.974;2024-02-26T17:57:55;49.13;;;23.87;;
19384;SDS011;9828;54.122;17.974;2024-02-26T18:03:17;50.03;;;24.57;;
19384;SDS011;9828;54.122;17.974;2024-02-26T18:08:38;43.63;;;23.83;;
19384;SDS011;9828;54.122;17.974;2024-02-26T18:14:00;38.60;;;22.83;;
19384;SDS011;9828;54.122;17.974;2024-02-26T18:19:23;51.77;;;27.83;;
19384;SDS011;9828;54.122;17.974;2024-02-26T18:24:44;57.83;;;33.67;;
19384;SDS011;9828;54.122;17.974;2024-02-26T18:30:06;61.83;;;35.40;;
19384;SDS011;9828;54.122;17.974;2024-02-26T18:35:29;58.47;;;36.73;;
19384;SDS011;9828;54.122;17.974;2024-02-26T18:40:50;52.47;;;32.37;;
19384;SDS011;9828;54.122;17.974;2024-02-26T18:46:12;43.80;;;27.33;;
19384;SDS011;9828;54.122;17.974;2024-02-26T18:51:34;45.03;;;27.17;;
19384;SDS011;9828;54.122;17.974;2024-02-26T18:56:57;44.37;;;25.73;;
19384;SDS011;9828;54.122;17.974;2024-02-26T19:02:28;37.80;;;22.90;;
19384;SDS011;9828;54.122;17.974;2024-02-26T19:07:50;41.63;;;25.23;;
19384;SDS011;9828;54.122;17.974;2024-02-26T19:13:21;36.37;;;22.43;;
19384;SDS011;9828;54.122;17.974;2024-02-26T19:18:45;41.40;;;22.27;;
19384;SDS011;9828;54.122;17.974;2024-02-26T19:24:09;39.33;;;23.03;;
19384;SDS011;9828;54.122;17.974;2024-02-26T19:29:32;33.60;;;19.53;;
19384;SDS011;9828;54.122;17.974;2024-02-26T19:34:55;29.03;;;17.97;;
19384;SDS011;9828;54.122;17.974;2024-02-26T19:40:18;29.33;;;19.23;;
19384;SDS011;9828;54.122;17.974;2024-02-26T19:45:40;31.87;;;20.20;;
19384;SDS011;9828;54.122;17.974;2024-02-26T19:51:02;30.53;;;20.53;;
19384;SDS011;9828;54.122;17.974;2024-02-26T19:56:23;32.23;;;21.23;;
19384;SDS011;9828;54.122;17.974;2024-02-26T20:01:47;33.20;;;21.10;;
19384;SDS011;9828;54.122;17.974;2024-02-26T20:07:08;33.07;;;21.53;;
19384;SDS011;9828;54.122;17.974;2024-02-26T20:12:30;53.90;;;34.93;;
19384;SDS011;9828;54.122;17.974;2024-02-26T20:17:52;45.97;;;29.07;;
19384;SDS011;9828;54.122;17.974;2024-02-26T20:23:13;45.27;;;26.43;;
19384;SDS011;9828;54.122;17.974;2024-02-26T20:28:35;51.73;;;26.93;;
19384;SDS011;9828;54.122;17.974;2024-02-26T20:33:56;67.40;;;37.97;;
19384;SDS011;9828;54.122;17.974;2024-02-26T20:39:18;59.20;;;28.30;;
19384;SDS011;9828;54.122;17.974;2024-02-26T20:44:39;36.97;;;21.27;;
19384;SDS011;9828;54.122;17.974;2024-02-26T20:50:02;37.97;;;25.37;;
19384;SDS011;9828;54.122;17.974;2024-02-26T20:55:27;49.53;;;23.83;;
19384;SDS011;9828;54.122;17.974;2024-02-26T21:00:48;42.60;;;20.80;;
19384;SDS011;9828;54.122;17.974;2024-02-26T21:06:10;34.80;;;20.73;;
19384;SDS011;9828;54.122;17.974;2024-02-26T21:11:33;66.50;;;39.23;;
19384;SDS011;9828;54.122;17.974;2024-02-26T21:16:55;73.17;;;28.90;;
19384;SDS011;9828;54.122;17.974;2024-02-26T21:22:17;43.27;;;21.23;;
19384;SDS011;9828;54.122;17.974;2024-02-26T21:27:39;51.57;;;21.57;;
19384;SDS011;9828;54.122;17.974;2024-02-26T21:33:01;44.63;;;22.43;;
19384;SDS011;9828;54.122;17.974;2024-02-26T21:38:24;54.90;;;23.07;;
19384;SDS011;9828;54.122;17.974;2024-02-26T21:43:48;88.47;;;41.63;;
19384;SDS011;9828;54.122;17.974;2024-02-26T21:49:15;88.37;;;34.57;;
19384;SDS011;9828;54.122;17.974;2024-02-26T21:54:37;44.63;;;21.30;;
19384;SDS011;9828;54.122;17.974;2024-02-26T22:00:07;55.63;;;22.13;;
19384;SDS011;9828;54.122;17.974;2024-02-26T22:05:32;55.07;;;21.97;;
19384;SDS011;9828;54.122;17.974;2024-02-26T22:10:56;67.13;;;23.57;;
19384;SDS011;9828;54.122;17.974;2024-02-26T22:16:18;55.33;;;21.60;;
19384;SDS011;9828;54.122;17.974;2024-02-26T22:21:41;44.80;;;18.10;;
19384;SDS011;9828;54.122;17.974;2024-02-26T22:27:02;47.43;;;18.20;;
19384;SDS011;9828;54.122;17.974;2024-02-26T22:32:24;31.73;;;16.77;;
19384;SDS011;9828;54.122;17.974;2024-02-26T22:37:45;25.70;;;14.83;;
19384;SDS011;9828;54.122;17.974;2024-02-26T22:43:07;23.50;;;14.17;;
19384;SDS011;9828;54.122;17.974;2024-02-26T22:48:28;28.53;;;15.97;;
19384;SDS011;9828;54.122;17.974;2024-02-26T22:53:50;25.43;;;15.67;;
19384;SDS011;9828;54.122;17.974;2024-02-26T22:59:14;22.53;;;14.77;;
19384;SDS011;9828;54.122;17.974;2024-02-26T23:04:38;27.93;;;15.30;;
19384;SDS011;9828;54.122;17.974;2024-02-26T23:10:01;24.77;;;16.03;;
19384;SDS011;9828;54.122;17.974;2024-02-26T23:15:25;26.60;;;18.50;;
19384;SDS011;9828;54.122;17.974;2024-02-26T23:20:51;28.63;;;17.73;;
19384;SDS011;9828;54.122;17.974;2024-02-26T23:26:15;27.47;;;17.60;;
19384;SDS011;9828;54.122;17.974;2024-02-26T23:31:36;29.60;;;18.63;;
19384;SDS011;9828;54.122;17.974;2024-02-26T23:36:58;28.83;;;19.37;;
19384;SDS011;9828;54.122;17.974;2024-02-26T23:42:19;27.97;;;19.60;;
19384;SDS011;9828;54.122;17.974;2024-02-26T23:47:41;27.40;;;18.37;;
19384;SDS011;9828;54.122;17.974;2024-02-26T23:53:02;27.57;;;18.03;;
19384;SDS011;9828;54.122;17.974;2024-02-26T23:58:24;24.23;;;17.07;;
